SAS441 LHBP-EKCH
Flight info
| Callsign | SAS441 |
|---|---|
| Flight time | 1h 35m |
| Altitude | 36000 |
| Route | LITKU Y301 KALIF/N0446F360 DCT BILNA DCT REGLI L617 ADVAB L619 DENKO L996 GOSOT/N0421F280 L996 ROE M743 TIDVU |
| Aircraft | A321/M-SDE3FGHIRWY/LB1 |
Departure
| Time | 2026-05-04 18:22 |
|---|---|
| Airport | Budapest Liszt Ferenc International Airport (LHBP) |
Arrival
| Time | 2026-05-04 19:57 |
|---|---|
| Airport | Copenhagen Kastrup Airport (EKCH) |
| Time | Latitude | Longitude | Altitude | Speed | Heading |
|---|---|---|---|---|---|
| 2026-05-04 17:20 | 47.43365 | 19.25843 | 458 ft | 0 kts | 222° |
| 2026-05-04 18:11 | 47.43373 | 19.25853 | 457 ft | 4 kts | 222° |
| 2026-05-04 18:11 | 47.43393 | 19.25880 | 456 ft | 4 kts | 222° |
| 2026-05-04 18:12 | 47.43410 | 19.25904 | 453 ft | 4 kts | 232° |
| 2026-05-04 18:12 | 47.43417 | 19.25934 | 456 ft | 4 kts | 294° |
| 2026-05-04 18:12 | 47.43405 | 19.25962 | 453 ft | 1 kts | 312° |
| 2026-05-04 18:12 | 47.43402 | 19.25966 | 455 ft | 0 kts | 312° |
| 2026-05-04 18:17 | 47.43415 | 19.25945 | 453 ft | 4 kts | 312° |
| 2026-05-04 18:17 | 47.43440 | 19.25904 | 456 ft | 7 kts | 312° |
| 2026-05-04 18:17 | 47.43518 | 19.25753 | 457 ft | 11 kts | 309° |
| 2026-05-04 18:18 | 47.43586 | 19.25716 | 457 ft | 11 kts | 26° |
| 2026-05-04 18:18 | 47.43654 | 19.25803 | 457 ft | 15 kts | 42° |
| 2026-05-04 18:18 | 47.43727 | 19.25902 | 457 ft | 11 kts | 43° |
| 2026-05-04 18:18 | 47.43792 | 19.25989 | 456 ft | 14 kts | 42° |
| 2026-05-04 18:19 | 47.43892 | 19.26122 | 458 ft | 6 kts | 42° |
| 2026-05-04 18:19 | 47.43930 | 19.26174 | 457 ft | 9 kts | 42° |
| 2026-05-04 18:19 | 47.43980 | 19.26240 | 459 ft | 8 kts | 42° |
| 2026-05-04 18:20 | 47.43995 | 19.26260 | 460 ft | 2 kts | 43° |
| 2026-05-04 18:20 | 47.44011 | 19.26282 | 459 ft | 5 kts | 43° |
| 2026-05-04 18:20 | 47.44039 | 19.26327 | 463 ft | 7 kts | 52° |
| 2026-05-04 18:20 | 47.44060 | 19.26383 | 466 ft | 5 kts | 67° |
| 2026-05-04 18:21 | 47.44069 | 19.26433 | 471 ft | 7 kts | 79° |
| 2026-05-04 18:21 | 47.44057 | 19.26538 | 470 ft | 12 kts | 120° |
| 2026-05-04 18:21 | 47.43976 | 19.26683 | 470 ft | 39 kts | 131° |
| 2026-05-04 18:21 | 47.43615 | 19.27257 | 472 ft | 112 kts | 132° |
| 2026-05-04 18:22 | 47.42946 | 19.28327 | 461 ft | 169 kts | 133° |
| 2026-05-04 18:22 | 47.42154 | 19.29625 | 1203 ft | 162 kts | 132° |
| 2026-05-04 18:22 | 47.41520 | 19.30895 | 2137 ft | 148 kts | 125° |
| 2026-05-04 18:22 | 47.40995 | 19.32335 | 2456 ft | 171 kts | 123° |
| 2026-05-04 18:23 | 47.40396 | 19.33984 | 2738 ft | 194 kts | 122° |
| 2026-05-04 18:23 | 47.39718 | 19.35831 | 2971 ft | 215 kts | 122° |
| 2026-05-04 18:23 | 47.38959 | 19.37879 | 3195 ft | 239 kts | 122° |
| 2026-05-04 18:23 | 47.38296 | 19.40159 | 3679 ft | 259 kts | 101° |
| 2026-05-04 18:24 | 47.38557 | 19.42848 | 4244 ft | 277 kts | 65° |
| 2026-05-04 18:24 | 47.39745 | 19.45119 | 4982 ft | 284 kts | 44° |
| 2026-05-04 18:24 | 47.41259 | 19.46999 | 5790 ft | 286 kts | 36° |
| 2026-05-04 18:24 | 47.43039 | 19.48286 | 6574 ft | 287 kts | 13° |
| 2026-05-04 18:25 | 47.45021 | 19.48694 | 7325 ft | 288 kts | 5° |
| 2026-05-04 18:25 | 47.47030 | 19.48983 | 8064 ft | 291 kts | 4° |
| 2026-05-04 18:25 | 47.49060 | 19.49264 | 8794 ft | 295 kts | 4° |
| 2026-05-04 18:25 | 47.51115 | 19.49546 | 9517 ft | 299 kts | 4° |
| 2026-05-04 18:26 | 47.53196 | 19.49837 | 10198 ft | 304 kts | 5° |
| 2026-05-04 18:26 | 47.55349 | 19.50140 | 10384 ft | 326 kts | 5° |
| 2026-05-04 18:26 | 47.57685 | 19.50468 | 10504 ft | 349 kts | 5° |
| 2026-05-04 18:26 | 47.60157 | 19.50816 | 10832 ft | 361 kts | 5° |
| 2026-05-04 18:27 | 47.62677 | 19.51175 | 11419 ft | 365 kts | 5° |
| 2026-05-04 18:27 | 47.65216 | 19.51537 | 12047 ft | 368 kts | 5° |
| 2026-05-04 18:27 | 47.67778 | 19.51903 | 12682 ft | 371 kts | 5° |
| 2026-05-04 18:27 | 47.70362 | 19.52272 | 13336 ft | 374 kts | 5° |
| 2026-05-04 18:28 | 47.72960 | 19.52645 | 13968 ft | 376 kts | 5° |
| 2026-05-04 18:28 | 47.75577 | 19.53020 | 14550 ft | 379 kts | 5° |
| 2026-05-04 18:28 | 47.78170 | 19.53389 | 15117 ft | 381 kts | 5° |
| 2026-05-04 18:28 | 47.80817 | 19.53765 | 15686 ft | 383 kts | 5° |
| 2026-05-04 18:29 | 47.83478 | 19.54146 | 16265 ft | 386 kts | 5° |
| 2026-05-04 18:29 | 47.86157 | 19.54529 | 16831 ft | 388 kts | 5° |
| 2026-05-04 18:29 | 47.88855 | 19.54914 | 17391 ft | 391 kts | 4° |
| 2026-05-04 18:29 | 47.91566 | 19.55300 | 17948 ft | 393 kts | 5° |
| 2026-05-04 18:30 | 47.97044 | 19.55760 | 18918 ft | 396 kts | 352° |
| 2026-05-04 18:30 | 47.99684 | 19.54679 | 19349 ft | 396 kts | 335° |
| 2026-05-04 18:30 | 48.02123 | 19.52858 | 19806 ft | 398 kts | 332° |
| 2026-05-04 18:31 | 48.04592 | 19.50968 | 20264 ft | 400 kts | 332° |
| 2026-05-04 18:31 | 48.07080 | 19.49056 | 20700 ft | 403 kts | 332° |
| 2026-05-04 18:31 | 48.09582 | 19.47125 | 21121 ft | 406 kts | 332° |
| 2026-05-04 18:31 | 48.12102 | 19.45182 | 21562 ft | 408 kts | 332° |
| 2026-05-04 18:32 | 48.14634 | 19.43237 | 21996 ft | 411 kts | 332° |
| 2026-05-04 18:32 | 48.17187 | 19.41277 | 22443 ft | 413 kts | 332° |
| 2026-05-04 18:32 | 48.19747 | 19.39310 | 22876 ft | 415 kts | 332° |
| 2026-05-04 18:32 | 48.22325 | 19.37327 | 23300 ft | 418 kts | 332° |
| 2026-05-04 18:33 | 48.24886 | 19.35356 | 23716 ft | 420 kts | 332° |
| 2026-05-04 18:33 | 48.27527 | 19.33321 | 24076 ft | 422 kts | 332° |
| 2026-05-04 18:33 | 48.30107 | 19.31331 | 24439 ft | 424 kts | 332° |
| 2026-05-04 18:33 | 48.32735 | 19.29299 | 24803 ft | 426 kts | 332° |
| 2026-05-04 18:34 | 48.35372 | 19.27257 | 25169 ft | 427 kts | 332° |
| 2026-05-04 18:34 | 48.38017 | 19.25204 | 25528 ft | 429 kts | 332° |
| 2026-05-04 18:34 | 48.40675 | 19.23134 | 25890 ft | 430 kts | 331° |
| 2026-05-04 18:34 | 48.43339 | 19.21057 | 26240 ft | 432 kts | 332° |
| 2026-05-04 18:35 | 48.46009 | 19.18977 | 26605 ft | 434 kts | 332° |
| 2026-05-04 18:35 | 48.48700 | 19.16880 | 26945 ft | 436 kts | 332° |
| 2026-05-04 18:35 | 48.51398 | 19.14777 | 27298 ft | 437 kts | 332° |
| 2026-05-04 18:35 | 48.54068 | 19.12693 | 27624 ft | 439 kts | 332° |
| 2026-05-04 18:36 | 48.56784 | 19.10568 | 27959 ft | 441 kts | 332° |
| 2026-05-04 18:36 | 48.59511 | 19.08432 | 28285 ft | 443 kts | 332° |
| 2026-05-04 18:36 | 48.62255 | 19.06284 | 28571 ft | 445 kts | 332° |
| 2026-05-04 18:36 | 48.65008 | 19.04130 | 28879 ft | 446 kts | 332° |
| 2026-05-04 18:37 | 48.67763 | 19.01967 | 29159 ft | 448 kts | 332° |
| 2026-05-04 18:37 | 48.70533 | 18.99787 | 29456 ft | 449 kts | 331° |
| 2026-05-04 18:37 | 48.73306 | 18.97596 | 29727 ft | 450 kts | 331° |
| 2026-05-04 18:37 | 48.76080 | 18.95404 | 30092 ft | 449 kts | 331° |
| 2026-05-04 18:38 | 48.78846 | 18.93222 | 30432 ft | 448 kts | 331° |
| 2026-05-04 18:38 | 48.81607 | 18.91042 | 30753 ft | 446 kts | 331° |
| 2026-05-04 18:38 | 48.84358 | 18.88864 | 31067 ft | 445 kts | 331° |
| 2026-05-04 18:38 | 48.87061 | 18.86716 | 31382 ft | 444 kts | 331° |
| 2026-05-04 18:39 | 48.89798 | 18.84540 | 31683 ft | 444 kts | 331° |
| 2026-05-04 18:39 | 48.92533 | 18.82366 | 31988 ft | 443 kts | 331° |
| 2026-05-04 18:39 | 48.95258 | 18.80202 | 32292 ft | 442 kts | 331° |
| 2026-05-04 18:39 | 48.97982 | 18.78040 | 32588 ft | 441 kts | 331° |
| 2026-05-04 18:40 | 49.00702 | 18.75877 | 32895 ft | 440 kts | 331° |
| 2026-05-04 18:40 | 49.03398 | 18.73724 | 33232 ft | 438 kts | 331° |
| 2026-05-04 18:40 | 49.06092 | 18.71565 | 33563 ft | 436 kts | 331° |
| 2026-05-04 18:40 | 49.08780 | 18.69410 | 33886 ft | 435 kts | 331° |
| 2026-05-04 18:41 | 49.11454 | 18.67266 | 34167 ft | 434 kts | 331° |
| 2026-05-04 18:41 | 49.14129 | 18.65121 | 34418 ft | 434 kts | 331° |
| 2026-05-04 18:41 | 49.16763 | 18.63007 | 34635 ft | 434 kts | 331° |
| 2026-05-04 18:41 | 49.19435 | 18.60863 | 34859 ft | 434 kts | 331° |
| 2026-05-04 18:42 | 49.22111 | 18.58713 | 35093 ft | 434 kts | 331° |
| 2026-05-04 18:42 | 49.24781 | 18.56563 | 35322 ft | 434 kts | 331° |
| 2026-05-04 18:42 | 49.27445 | 18.54411 | 35551 ft | 433 kts | 330° |
| 2026-05-04 18:42 | 49.30116 | 18.52248 | 35788 ft | 433 kts | 330° |
| 2026-05-04 18:43 | 49.32773 | 18.50093 | 35980 ft | 433 kts | 330° |
| 2026-05-04 18:43 | 49.38084 | 18.45779 | 36024 ft | 431 kts | 330° |
| 2026-05-04 18:44 | 49.43412 | 18.41684 | 36017 ft | 432 kts | 333° |
| 2026-05-04 18:44 | 49.48900 | 18.37914 | 36005 ft | 432 kts | 334° |
| 2026-05-04 18:45 | 49.54406 | 18.34183 | 35999 ft | 432 kts | 334° |
| 2026-05-04 18:45 | 49.59886 | 18.30359 | 36005 ft | 432 kts | 333° |
| 2026-05-04 18:46 | 49.65353 | 18.26472 | 36013 ft | 433 kts | 333° |
| 2026-05-04 18:46 | 49.70827 | 18.22574 | 36023 ft | 433 kts | 333° |
| 2026-05-04 18:47 | 49.76272 | 18.18709 | 36029 ft | 433 kts | 333° |
| 2026-05-04 18:47 | 49.81754 | 18.14801 | 36024 ft | 433 kts | 333° |
| 2026-05-04 18:48 | 49.87228 | 18.10893 | 36021 ft | 433 kts | 333° |
| 2026-05-04 18:48 | 49.92701 | 18.06979 | 36010 ft | 433 kts | 333° |
| 2026-05-04 18:49 | 49.98172 | 18.03052 | 36002 ft | 433 kts | 333° |
| 2026-05-04 18:49 | 50.03610 | 17.99161 | 35996 ft | 433 kts | 334° |
| 2026-05-04 18:50 | 50.09224 | 17.95723 | 35991 ft | 434 kts | 338° |
| 2026-05-04 18:50 | 50.14934 | 17.92610 | 35988 ft | 435 kts | 338° |
| 2026-05-04 18:51 | 50.20632 | 17.89443 | 35994 ft | 435 kts | 338° |
| 2026-05-04 18:51 | 50.26302 | 17.86149 | 35989 ft | 435 kts | 337° |
| 2026-05-04 18:52 | 50.31962 | 17.82818 | 35990 ft | 435 kts | 337° |
| 2026-05-04 18:52 | 50.37597 | 17.79505 | 35990 ft | 435 kts | 337° |
| 2026-05-04 18:53 | 50.43270 | 17.76196 | 35984 ft | 435 kts | 337° |
| 2026-05-04 18:53 | 50.48950 | 17.72881 | 35985 ft | 435 kts | 337° |
| 2026-05-04 18:54 | 50.54621 | 17.69541 | 35979 ft | 435 kts | 337° |
| 2026-05-04 18:54 | 50.60296 | 17.66193 | 35972 ft | 435 kts | 336° |
| 2026-05-04 18:55 | 50.65927 | 17.62861 | 35971 ft | 435 kts | 336° |
| 2026-05-04 18:55 | 50.74437 | 17.57814 | 35978 ft | 436 kts | 336° |
| 2026-05-04 18:56 | 50.80110 | 17.54445 | 35975 ft | 436 kts | 336° |
| 2026-05-04 18:56 | 50.85784 | 17.51052 | 35973 ft | 436 kts | 336° |
| 2026-05-04 18:57 | 50.91450 | 17.47655 | 35971 ft | 436 kts | 336° |
| 2026-05-04 18:57 | 50.97088 | 17.44282 | 35969 ft | 436 kts | 336° |
| 2026-05-04 18:58 | 51.02762 | 17.40898 | 35970 ft | 436 kts | 336° |
| 2026-05-04 18:58 | 51.08440 | 17.37538 | 35968 ft | 436 kts | 336° |
| 2026-05-04 18:59 | 51.13163 | 17.34731 | 35968 ft | 436 kts | 336° |
| 2026-05-04 18:59 | 51.18880 | 17.31321 | 35976 ft | 436 kts | 336° |
| 2026-05-04 19:00 | 51.24511 | 17.27936 | 35982 ft | 435 kts | 335° |
| 2026-05-04 19:00 | 51.30178 | 17.24523 | 35976 ft | 435 kts | 336° |
| 2026-05-04 19:01 | 51.35805 | 17.21136 | 35977 ft | 435 kts | 336° |
| 2026-05-04 19:01 | 51.42429 | 17.17138 | 35966 ft | 435 kts | 335° |
| 2026-05-04 19:02 | 51.47134 | 17.14287 | 35970 ft | 435 kts | 335° |
| 2026-05-04 19:02 | 51.52797 | 17.10847 | 35986 ft | 435 kts | 335° |
| 2026-05-04 19:03 | 51.58459 | 17.07399 | 35977 ft | 435 kts | 335° |
| 2026-05-04 19:03 | 51.64115 | 17.03942 | 35973 ft | 435 kts | 335° |
| 2026-05-04 19:04 | 51.69735 | 17.00503 | 35974 ft | 435 kts | 335° |
| 2026-05-04 19:04 | 51.75385 | 16.97042 | 35974 ft | 435 kts | 335° |
| 2026-05-04 19:05 | 51.81034 | 16.93574 | 35980 ft | 435 kts | 335° |
| 2026-05-04 19:05 | 51.86687 | 16.90084 | 35978 ft | 435 kts | 335° |
| 2026-05-04 19:06 | 51.92296 | 16.86612 | 35976 ft | 434 kts | 335° |
| 2026-05-04 19:06 | 51.97940 | 16.83110 | 35989 ft | 435 kts | 334° |
| 2026-05-04 19:07 | 52.03591 | 16.79602 | 35978 ft | 435 kts | 334° |
| 2026-05-04 19:07 | 52.09241 | 16.76079 | 35984 ft | 435 kts | 334° |
| 2026-05-04 19:08 | 52.14901 | 16.72541 | 35978 ft | 436 kts | 334° |
| 2026-05-04 19:08 | 52.20516 | 16.69008 | 35975 ft | 436 kts | 334° |
| 2026-05-04 19:09 | 52.26177 | 16.65450 | 35973 ft | 436 kts | 334° |
| 2026-05-04 19:09 | 52.31837 | 16.61888 | 35973 ft | 436 kts | 334° |
| 2026-05-04 19:10 | 52.37491 | 16.58315 | 35986 ft | 436 kts | 334° |
| 2026-05-04 19:10 | 52.43151 | 16.54722 | 35979 ft | 436 kts | 334° |
| 2026-05-04 19:11 | 52.48768 | 16.51156 | 35975 ft | 436 kts | 334° |
| 2026-05-04 19:11 | 52.54430 | 16.47555 | 35979 ft | 436 kts | 334° |
| 2026-05-04 19:12 | 52.62907 | 16.42132 | 35984 ft | 436 kts | 334° |
| 2026-05-04 19:13 | 52.68524 | 16.38510 | 35979 ft | 436 kts | 334° |
| 2026-05-04 19:13 | 52.74176 | 16.34881 | 35979 ft | 436 kts | 334° |
| 2026-05-04 19:14 | 52.79832 | 16.31234 | 35991 ft | 436 kts | 333° |
| 2026-05-04 19:14 | 52.85484 | 16.27580 | 35985 ft | 437 kts | 333° |
| 2026-05-04 19:15 | 52.91144 | 16.23907 | 35998 ft | 437 kts | 333° |
| 2026-05-04 19:15 | 52.96795 | 16.20221 | 35988 ft | 436 kts | 333° |
| 2026-05-04 19:16 | 53.02405 | 16.16546 | 35984 ft | 437 kts | 333° |
| 2026-05-04 19:16 | 53.08062 | 16.12849 | 35989 ft | 437 kts | 333° |
| 2026-05-04 19:17 | 53.13714 | 16.09142 | 35988 ft | 437 kts | 333° |
| 2026-05-04 19:17 | 53.19362 | 16.05420 | 36005 ft | 437 kts | 333° |
| 2026-05-04 19:18 | 53.24969 | 16.01730 | 35998 ft | 434 kts | 333° |
| 2026-05-04 19:18 | 53.30585 | 15.98028 | 35998 ft | 434 kts | 333° |
| 2026-05-04 19:19 | 53.36193 | 15.94304 | 35997 ft | 434 kts | 333° |
| 2026-05-04 19:19 | 53.41800 | 15.90561 | 35999 ft | 434 kts | 333° |
| 2026-05-04 19:20 | 53.47408 | 15.86816 | 36012 ft | 434 kts | 333° |
| 2026-05-04 19:20 | 53.53014 | 15.83065 | 36013 ft | 434 kts | 333° |
| 2026-05-04 19:21 | 53.58616 | 15.79298 | 36006 ft | 434 kts | 333° |
| 2026-05-04 19:21 | 53.64179 | 15.75550 | 36027 ft | 434 kts | 333° |
| 2026-05-04 19:22 | 53.69786 | 15.71778 | 36020 ft | 434 kts | 333° |
| 2026-05-04 19:22 | 53.75386 | 15.67988 | 36006 ft | 433 kts | 332° |
| 2026-05-04 19:23 | 53.80968 | 15.64190 | 36006 ft | 433 kts | 332° |
| 2026-05-04 19:23 | 53.86519 | 15.60402 | 36006 ft | 433 kts | 332° |
| 2026-05-04 19:24 | 53.92114 | 15.56577 | 36005 ft | 434 kts | 332° |
| 2026-05-04 19:24 | 53.97707 | 15.52742 | 36009 ft | 434 kts | 332° |
| 2026-05-04 19:25 | 54.03314 | 15.48895 | 36025 ft | 434 kts | 332° |
| 2026-05-04 19:25 | 54.08920 | 15.45037 | 36017 ft | 435 kts | 332° |
| 2026-05-04 19:26 | 54.14487 | 15.41188 | 36012 ft | 435 kts | 332° |
| 2026-05-04 19:26 | 54.20088 | 15.37304 | 36006 ft | 434 kts | 332° |
| 2026-05-04 19:27 | 54.25686 | 15.33421 | 36010 ft | 434 kts | 332° |
| 2026-05-04 19:27 | 54.31283 | 15.29516 | 35997 ft | 435 kts | 331° |
| 2026-05-04 19:28 | 54.36848 | 15.25609 | 35995 ft | 435 kts | 331° |
| 2026-05-04 19:28 | 54.42465 | 15.21674 | 35989 ft | 436 kts | 331° |
| 2026-05-04 19:29 | 54.48087 | 15.17726 | 35992 ft | 437 kts | 331° |
| 2026-05-04 19:29 | 54.53716 | 15.13756 | 35995 ft | 437 kts | 331° |
| 2026-05-04 19:30 | 54.59341 | 15.09764 | 35724 ft | 437 kts | 331° |
| 2026-05-04 19:30 | 54.62144 | 15.07778 | 35096 ft | 436 kts | 331° |
| 2026-05-04 19:30 | 54.64948 | 15.05793 | 34456 ft | 435 kts | 330° |
| 2026-05-04 19:30 | 54.67743 | 15.03812 | 33825 ft | 434 kts | 330° |
| 2026-05-04 19:31 | 54.70492 | 15.01856 | 33076 ft | 433 kts | 330° |
| 2026-05-04 19:31 | 54.73274 | 14.99870 | 32318 ft | 432 kts | 329° |
| 2026-05-04 19:31 | 54.76049 | 14.97886 | 31554 ft | 431 kts | 329° |
| 2026-05-04 19:31 | 54.78744 | 14.95703 | 30790 ft | 421 kts | 320° |
| 2026-05-04 19:32 | 54.80978 | 14.92610 | 30058 ft | 405 kts | 306° |
| 2026-05-04 19:32 | 54.82746 | 14.88875 | 29236 ft | 398 kts | 302° |
| 2026-05-04 19:32 | 54.84438 | 14.85122 | 28542 ft | 394 kts | 302° |
| 2026-05-04 19:32 | 54.86109 | 14.81390 | 27848 ft | 390 kts | 302° |
| 2026-05-04 19:33 | 54.87745 | 14.77734 | 27147 ft | 387 kts | 302° |
| 2026-05-04 19:33 | 54.89394 | 14.74050 | 26475 ft | 385 kts | 302° |
| 2026-05-04 19:33 | 54.91029 | 14.70393 | 25775 ft | 382 kts | 302° |
| 2026-05-04 19:33 | 54.92656 | 14.66751 | 25080 ft | 381 kts | 302° |
| 2026-05-04 19:34 | 54.94274 | 14.63126 | 24399 ft | 379 kts | 302° |
| 2026-05-04 19:34 | 54.95886 | 14.59506 | 23725 ft | 377 kts | 302° |
| 2026-05-04 19:34 | 54.97509 | 14.55858 | 22970 ft | 376 kts | 303° |
| 2026-05-04 19:34 | 54.99085 | 14.52308 | 22245 ft | 374 kts | 303° |
| 2026-05-04 19:35 | 55.00669 | 14.48738 | 21548 ft | 371 kts | 303° |
| 2026-05-04 19:35 | 55.02221 | 14.45238 | 20886 ft | 368 kts | 303° |
| 2026-05-04 19:35 | 55.03719 | 14.41650 | 20244 ft | 365 kts | 301° |
| 2026-05-04 19:35 | 55.05136 | 14.38005 | 19608 ft | 362 kts | 300° |
| 2026-05-04 19:36 | 55.06505 | 14.34335 | 18982 ft | 360 kts | 299° |
| 2026-05-04 19:36 | 55.07852 | 14.30670 | 18384 ft | 358 kts | 299° |
| 2026-05-04 19:36 | 55.09191 | 14.27034 | 17731 ft | 355 kts | 300° |
| 2026-05-04 19:36 | 55.10532 | 14.23427 | 17075 ft | 352 kts | 300° |
| 2026-05-04 19:37 | 55.11865 | 14.19866 | 16433 ft | 349 kts | 300° |
| 2026-05-04 19:37 | 55.13174 | 14.16384 | 15802 ft | 346 kts | 300° |
| 2026-05-04 19:37 | 55.14489 | 14.12889 | 15180 ft | 343 kts | 300° |
| 2026-05-04 19:37 | 55.15792 | 14.09423 | 14580 ft | 340 kts | 300° |
| 2026-05-04 19:38 | 55.17082 | 14.05989 | 13984 ft | 337 kts | 300° |
| 2026-05-04 19:38 | 55.18362 | 14.02574 | 13348 ft | 334 kts | 300° |
| 2026-05-04 19:38 | 55.19629 | 13.99194 | 12695 ft | 331 kts | 300° |
| 2026-05-04 19:38 | 55.20885 | 13.95834 | 12049 ft | 328 kts | 300° |
| 2026-05-04 19:39 | 55.22131 | 13.92493 | 11413 ft | 326 kts | 300° |
| 2026-05-04 19:39 | 55.23361 | 13.89184 | 10802 ft | 324 kts | 300° |
| 2026-05-04 19:39 | 55.24584 | 13.85890 | 10206 ft | 321 kts | 300° |
| 2026-05-04 19:39 | 55.25791 | 13.82636 | 9851 ft | 311 kts | 300° |
| 2026-05-04 19:40 | 55.26925 | 13.79580 | 9706 ft | 295 kts | 300° |
| 2026-05-04 19:40 | 55.28017 | 13.76639 | 9579 ft | 281 kts | 300° |
| 2026-05-04 19:40 | 55.29059 | 13.73832 | 9380 ft | 270 kts | 300° |
| 2026-05-04 19:40 | 55.30076 | 13.71087 | 9009 ft | 266 kts | 300° |
| 2026-05-04 19:41 | 55.31074 | 13.68379 | 8607 ft | 264 kts | 300° |
| 2026-05-04 19:41 | 55.32069 | 13.65678 | 8212 ft | 263 kts | 300° |
| 2026-05-04 19:41 | 55.33057 | 13.62993 | 7826 ft | 261 kts | 300° |
| 2026-05-04 19:41 | 55.34039 | 13.60327 | 7433 ft | 259 kts | 300° |
| 2026-05-04 19:42 | 55.35013 | 13.57677 | 7056 ft | 257 kts | 300° |
| 2026-05-04 19:42 | 55.35978 | 13.55037 | 6668 ft | 256 kts | 300° |
| 2026-05-04 19:42 | 55.36940 | 13.52410 | 6297 ft | 255 kts | 300° |
| 2026-05-04 19:42 | 55.37898 | 13.49796 | 5897 ft | 253 kts | 300° |
| 2026-05-04 19:43 | 55.38850 | 13.47198 | 5494 ft | 253 kts | 300° |
| 2026-05-04 19:43 | 55.39779 | 13.44657 | 5112 ft | 252 kts | 301° |
| 2026-05-04 19:43 | 55.40724 | 13.42071 | 5000 ft | 251 kts | 300° |
| 2026-05-04 19:43 | 55.41673 | 13.39465 | 5004 ft | 253 kts | 301° |
| 2026-05-04 19:44 | 55.42623 | 13.36852 | 5003 ft | 254 kts | 301° |
| 2026-05-04 19:44 | 55.43577 | 13.34233 | 5007 ft | 254 kts | 301° |
| 2026-05-04 19:44 | 55.44660 | 13.31780 | 5007 ft | 257 kts | 316° |
| 2026-05-04 19:44 | 55.46166 | 13.30043 | 5003 ft | 260 kts | 326° |
| 2026-05-04 19:45 | 55.47725 | 13.28437 | 5005 ft | 260 kts | 327° |
| 2026-05-04 19:45 | 55.49290 | 13.26835 | 5003 ft | 260 kts | 327° |
| 2026-05-04 19:45 | 55.50847 | 13.25245 | 4715 ft | 257 kts | 327° |
| 2026-05-04 19:45 | 55.52389 | 13.23664 | 4324 ft | 256 kts | 327° |
| 2026-05-04 19:46 | 55.53923 | 13.22085 | 4009 ft | 252 kts | 327° |
| 2026-05-04 19:46 | 55.55440 | 13.20517 | 3984 ft | 255 kts | 327° |
| 2026-05-04 19:46 | 55.56973 | 13.18928 | 3985 ft | 256 kts | 327° |
| 2026-05-04 19:46 | 55.58491 | 13.17360 | 3987 ft | 256 kts | 327° |
| 2026-05-04 19:47 | 55.60027 | 13.15774 | 3992 ft | 253 kts | 327° |
| 2026-05-04 19:47 | 55.61500 | 13.14255 | 3984 ft | 237 kts | 327° |
| 2026-05-04 19:47 | 55.62911 | 13.12796 | 3985 ft | 234 kts | 327° |
| 2026-05-04 19:47 | 55.64313 | 13.11336 | 3992 ft | 234 kts | 327° |
| 2026-05-04 19:48 | 55.65713 | 13.09876 | 3995 ft | 234 kts | 327° |
| 2026-05-04 19:48 | 55.67114 | 13.08418 | 3991 ft | 233 kts | 327° |
| 2026-05-04 19:48 | 55.68512 | 13.06962 | 3994 ft | 233 kts | 327° |
| 2026-05-04 19:48 | 55.69921 | 13.05538 | 3991 ft | 234 kts | 333° |
| 2026-05-04 19:49 | 55.71518 | 13.04888 | 3991 ft | 239 kts | 356° |
| 2026-05-04 19:49 | 55.73151 | 13.05445 | 3695 ft | 243 kts | 21° |
| 2026-05-04 19:49 | 55.74517 | 13.07144 | 3342 ft | 245 kts | 41° |
| 2026-05-04 19:49 | 55.75808 | 13.09074 | 3023 ft | 239 kts | 25° |
| 2026-05-04 19:50 | 55.77367 | 13.09940 | 2991 ft | 235 kts | 8° |
| 2026-05-04 19:50 | 55.78985 | 13.10377 | 2987 ft | 235 kts | 360° |
| 2026-05-04 19:50 | 55.80535 | 13.09768 | 2984 ft | 229 kts | 327° |
| 2026-05-04 19:50 | 55.81623 | 13.07792 | 2986 ft | 226 kts | 296° |
| 2026-05-04 19:51 | 55.81936 | 13.05077 | 2989 ft | 228 kts | 270° |
| 2026-05-04 19:51 | 55.81838 | 13.02260 | 2988 ft | 229 kts | 266° |
| 2026-05-04 19:51 | 55.81686 | 12.99442 | 2992 ft | 229 kts | 265° |
| 2026-05-04 19:51 | 55.81284 | 12.96705 | 2987 ft | 231 kts | 245° |
| 2026-05-04 19:52 | 55.80295 | 12.94448 | 2994 ft | 235 kts | 224° |
| 2026-05-04 19:52 | 55.79062 | 12.92526 | 2997 ft | 236 kts | 224° |
| 2026-05-04 19:52 | 55.77831 | 12.90602 | 2996 ft | 236 kts | 224° |
| 2026-05-04 19:52 | 55.76620 | 12.88704 | 2998 ft | 235 kts | 224° |
| 2026-05-04 19:53 | 55.75393 | 12.86783 | 2999 ft | 232 kts | 224° |
| 2026-05-04 19:53 | 55.74227 | 12.84963 | 3006 ft | 213 kts | 224° |
| 2026-05-04 19:53 | 55.73154 | 12.83288 | 2823 ft | 197 kts | 225° |
| 2026-05-04 19:53 | 55.72154 | 12.81725 | 2586 ft | 188 kts | 225° |
| 2026-05-04 19:54 | 55.71187 | 12.80214 | 2338 ft | 184 kts | 225° |
| 2026-05-04 19:54 | 55.70231 | 12.78721 | 2101 ft | 183 kts | 225° |
| 2026-05-04 19:54 | 55.69291 | 12.77258 | 1860 ft | 171 kts | 225° |
| 2026-05-04 19:54 | 55.68439 | 12.75935 | 1623 ft | 155 kts | 226° |
| 2026-05-04 19:55 | 55.67666 | 12.74731 | 1414 ft | 143 kts | 226° |
| 2026-05-04 19:55 | 55.66931 | 12.73586 | 1224 ft | 139 kts | 226° |
| 2026-05-04 19:55 | 55.66222 | 12.72481 | 1037 ft | 136 kts | 226° |
| 2026-05-04 19:55 | 55.65513 | 12.71379 | 850 ft | 135 kts | 225° |
| 2026-05-04 19:56 | 55.64809 | 12.70283 | 661 ft | 136 kts | 225° |
| 2026-05-04 19:56 | 55.64099 | 12.69173 | 482 ft | 136 kts | 224° |
| 2026-05-04 19:56 | 55.63380 | 12.68074 | 314 ft | 137 kts | 223° |
| 2026-05-04 19:56 | 55.62667 | 12.66952 | 107 ft | 137 kts | 223° |
| 2026-05-04 19:57 | 55.61988 | 12.65891 | 27 ft | 111 kts | 221° |
| 2026-05-04 19:57 | 55.61640 | 12.65347 | 22 ft | 24 kts | 232° |
| 2026-05-04 19:57 | 55.61606 | 12.65102 | 24 ft | 20 kts | 282° |
| 2026-05-04 19:57 | 55.61664 | 12.64921 | 24 ft | 10 kts | 310° |
| 2026-05-04 19:58 | 55.61706 | 12.64844 | 24 ft | 7 kts | 321° |
| 2026-05-04 19:58 | 55.61753 | 12.64799 | 24 ft | 9 kts | 341° |
| 2026-05-04 19:58 | 55.61822 | 12.64784 | 24 ft | 11 kts | 1° |
| 2026-05-04 19:58 | 55.61903 | 12.64827 | 24 ft | 13 kts | 27° |
| 2026-05-04 19:59 | 55.61989 | 12.64913 | 24 ft | 13 kts | 34° |
| 2026-05-04 19:59 | 55.62058 | 12.65018 | 24 ft | 14 kts | 44° |
| 2026-05-04 19:59 | 55.62123 | 12.65081 | 24 ft | 6 kts | 30° |
| 2026-05-04 19:59 | 55.62124 | 12.65083 | 24 ft | 1 kts | 30° |
| 2026-05-04 20:00 | 55.62138 | 12.65096 | 26 ft | 3 kts | 30° |
| 2026-05-04 20:00 | 55.62165 | 12.65126 | 24 ft | 6 kts | 32° |
| 2026-05-04 20:00 | 55.62210 | 12.65167 | 24 ft | 9 kts | 12° |
| 2026-05-04 20:00 | 55.62270 | 12.65097 | 24 ft | 12 kts | 306° |
| 2026-05-04 20:01 | 55.62319 | 12.64963 | 24 ft | 14 kts | 302° |
| 2026-05-04 20:01 | 55.62367 | 12.64828 | 25 ft | 11 kts | 302° |
| 2026-05-04 20:01 | 55.62417 | 12.64702 | 24 ft | 13 kts | 316° |
| 2026-05-04 20:01 | 55.62498 | 12.64657 | 24 ft | 11 kts | 353° |
| 2026-05-04 20:02 | 55.62549 | 12.64652 | 24 ft | 7 kts | 357° |
| 2026-05-04 20:02 | 55.62603 | 12.64650 | 24 ft | 6 kts | 0° |
| 2026-05-04 20:02 | 55.62641 | 12.64617 | 24 ft | 7 kts | 296° |
| 2026-05-04 20:02 | 55.62645 | 12.64582 | 24 ft | 2 kts | 280° |
| 2026-05-04 20:03 | 55.62648 | 12.64557 | 24 ft | 0 kts | 280° |